Chemical Marketer — 9HA2018 — position and weather

sailwx.info

Track history (hours):
 
Tides and Currents Weather Stations Pressure Air Temp Water Temp Dewpoint Dewpoint Depression Visibility Wind Speed Wind Dir Waves Ship Positions

Chemical Marketer

Last reported at 2017-Sep-25 05:00 UTC. Time now 2017-Sep-25 13:37 UTC.
Position N 32°53' E 034°56'.

Length 134 m; draft 5.6 m.

Type: Tanker. MMSI: 249814000.

Date/timePositionNaut miles runAvg speedWind from/ knotsBaromVisibWave heightAir tempDewpointWater temp
2017-Sep-25 05:00N 32°53' E 034°56'2 4.7
2017-Sep-25 04:29N 32°54' E 034°53'  
2017-Sep-18 23:12N 38°50' E 025°11'314.4
2017-Sep-18 23:00N 38°48' E 025°10'814.1
2017-Sep-18 22:27N 38°40' E 025°05'914.1
2017-Sep-18 21:47N 38°32' E 025°00'2114.4
2017-Sep-18 20:21N 38°14' E 024°48'514.4
2017-Sep-18 20:00N 38°09' E 024°45'5413.8
2017-Sep-18 16:06N 37°22' E 024°12'1314.1
2017-Sep-18 15:12N 37°14' E 024°00'414.2
2017-Sep-18 14:53N 37°11' E 023°56'514.1
2017-Sep-18 14:30N 37°07' E 023°51'713.8
2017-Sep-18 13:58N 37°02' E 023°44'614.1
2017-Sep-18 13:30N 36°58' E 023°39'714.3
2017-Sep-18 13:00N 36°51' E 023°34'2014.3
2017-Sep-18 11:36N 36°33' E 023°25'214.5
2017-Sep-18 11:29N 36°31' E 023°24'714.7
2017-Sep-18 11:00N 36°25' E 023°21'814.5
2017-Sep-18 10:29N 36°17' E 023°17'24713.6
2017-Sep-17 16:16N 36°13' E 018°11'414.4
2017-Sep-17 16:00N 36°13' E 018°07'714.4
2017-Sep-17 15:30N 36°14' E 017°58'714.3
2017-Sep-17 15:00N 36°14' E 017°49'714.2
2017-Sep-17 14:30N 36°14' E 017°40'714.1
2017-Sep-17 14:00N 36°15' E 017°31'4514.3
2017-Sep-17 10:51N 36°17' E 016°35'514.5
2017-Sep-17 10:30N 36°17' E 016°29'914.3
2017-Sep-17 09:52N 36°17' E 016°18'514.2
2017-Sep-17 09:30N 36°18' E 016°11'714.2
2017-Sep-17 09:00N 36°19' E 016°03'714.0
2017-Sep-17 08:30N 36°19' E 015°54'713.7
2017-Sep-17 08:00N 36°20' E 015°46'713.7
2017-Sep-17 07:30N 36°20' E 015°37'713.7
2017-Sep-17 07:00N 36°20' E 015°29'914.0
2017-Sep-17 06:21N 36°20' E 015°17'514.5
2017-Sep-17 06:01N 36°20' E 015°11'814.7
2017-Sep-17 05:28N 36°21' E 015°01'714.6
2017-Sep-17 05:00N 36°21' E 014°53'714.6
2017-Sep-17 04:30N 36°22' E 014°44'714.6
2017-Sep-17 04:00N 36°22' E 014°35'714.5
2017-Sep-17 03:31N 36°22' E 014°26'714.4
2017-Sep-17 03:00N 36°22' E 014°17'714.4
2017-Sep-17 02:30N 36°24' E 014°08'714.3
2017-Sep-17 02:00N 36°27' E 013°60'714.2
2017-Sep-17 01:30N 36°29' E 013°51'714.3
2017-Sep-17 01:00N 36°31' E 013°43'714.2
2017-Sep-17 00:30N 36°33' E 013°34'714.3
2017-Sep-17 00:00N 36°35' E 013°26'714.2
2017-Sep-16 23:30N 36°38' E 013°18'713.9
2017-Sep-16 23:00N 36°40' E 013°09'714.0
2017-Sep-16 22:30N 36°42' E 013°01'714.0
2017-Sep-16 22:00N 36°44' E 012°53'5514.5
2017-Sep-16 18:12N 37°04' E 011°49'314.2
2017-Sep-16 17:58N 37°06' E 011°45'714.0
2017-Sep-16 17:29N 37°09' E 011°38'814.3
2017-Sep-16 16:56N 37°14' E 011°30'714.5
2017-Sep-16 16:29N 37°17' E 011°22'1114.6
2017-Sep-16 15:43N 37°22' E 011°10'314.7
2017-Sep-16 15:30N 37°24' E 011°07'814.7
2017-Sep-16 14:56N 37°26' E 010°57'614.9
2017-Sep-16 14:30N 37°28' E 010°49'714.5
2017-Sep-16 13:59N 37°30' E 010°40'914.9
2017-Sep-16 13:25N 37°33' E 010°30'10014.4
2017-Sep-16 06:28N 37°38' E 008°23'713.9
2017-Sep-16 05:59N 37°38' E 008°15'  
Track history (hours):
 
Tides and Currents Weather Stations Pressure Air Temp Water Temp Dewpoint Dewpoint Depression Visibility Wind Speed Wind Dir Waves Ship Positions

Chemical Marketer

Last reported at 2017-Sep-25 05:00 UTC. Time now 2017-Sep-25 13:37 UTC.
Position N 32°53' E 034°56'.

Length 134 m; draft 5.6 m.

Type: Tanker. MMSI: 249814000.

Date/timePositionNaut miles runAvg speedWind from/ knotsBaromVisibWave heightAir tempDewpointWater temp
2017-Sep-25 05:00N 32°53' E 034°56'2 4.7
2017-Sep-25 04:29N 32°54' E 034°53'  
2017-Sep-18 23:12N 38°50' E 025°11'314.4
2017-Sep-18 23:00N 38°48' E 025°10'814.1
2017-Sep-18 22:27N 38°40' E 025°05'914.1
2017-Sep-18 21:47N 38°32' E 025°00'2114.4
2017-Sep-18 20:21N 38°14' E 024°48'514.4
2017-Sep-18 20:00N 38°09' E 024°45'5413.8
2017-Sep-18 16:06N 37°22' E 024°12'1314.1
2017-Sep-18 15:12N 37°14' E 024°00'414.2
2017-Sep-18 14:53N 37°11' E 023°56'514.1
2017-Sep-18 14:30N 37°07' E 023°51'713.8
2017-Sep-18 13:58N 37°02' E 023°44'614.1
2017-Sep-18 13:30N 36°58' E 023°39'714.3
2017-Sep-18 13:00N 36°51' E 023°34'2014.3
2017-Sep-18 11:36N 36°33' E 023°25'214.5
2017-Sep-18 11:29N 36°31' E 023°24'714.7
2017-Sep-18 11:00N 36°25' E 023°21'814.5
2017-Sep-18 10:29N 36°17' E 023°17'24713.6
2017-Sep-17 16:16N 36°13' E 018°11'414.4
2017-Sep-17 16:00N 36°13' E 018°07'714.4
2017-Sep-17 15:30N 36°14' E 017°58'714.3
2017-Sep-17 15:00N 36°14' E 017°49'714.2
2017-Sep-17 14:30N 36°14' E 017°40'714.1
2017-Sep-17 14:00N 36°15' E 017°31'4514.3
2017-Sep-17 10:51N 36°17' E 016°35'514.5
2017-Sep-17 10:30N 36°17' E 016°29'914.3
2017-Sep-17 09:52N 36°17' E 016°18'514.2
2017-Sep-17 09:30N 36°18' E 016°11'714.2
2017-Sep-17 09:00N 36°19' E 016°03'714.0
2017-Sep-17 08:30N 36°19' E 015°54'713.7
2017-Sep-17 08:00N 36°20' E 015°46'713.7
2017-Sep-17 07:30N 36°20' E 015°37'713.7
2017-Sep-17 07:00N 36°20' E 015°29'914.0
2017-Sep-17 06:21N 36°20' E 015°17'514.5
2017-Sep-17 06:01N 36°20' E 015°11'814.7
2017-Sep-17 05:28N 36°21' E 015°01'714.6
2017-Sep-17 05:00N 36°21' E 014°53'714.6
2017-Sep-17 04:30N 36°22' E 014°44'714.6
2017-Sep-17 04:00N 36°22' E 014°35'714.5
2017-Sep-17 03:31N 36°22' E 014°26'714.4
2017-Sep-17 03:00N 36°22' E 014°17'714.4
2017-Sep-17 02:30N 36°24' E 014°08'714.3
2017-Sep-17 02:00N 36°27' E 013°60'714.2
2017-Sep-17 01:30N 36°29' E 013°51'714.3
2017-Sep-17 01:00N 36°31' E 013°43'714.2
2017-Sep-17 00:30N 36°33' E 013°34'714.3
2017-Sep-17 00:00N 36°35' E 013°26'714.2
2017-Sep-16 23:30N 36°38' E 013°18'713.9
2017-Sep-16 23:00N 36°40' E 013°09'714.0
2017-Sep-16 22:30N 36°42' E 013°01'714.0
2017-Sep-16 22:00N 36°44' E 012°53'5514.5
2017-Sep-16 18:12N 37°04' E 011°49'314.2
2017-Sep-16 17:58N 37°06' E 011°45'714.0
2017-Sep-16 17:29N 37°09' E 011°38'814.3
2017-Sep-16 16:56N 37°14' E 011°30'714.5
2017-Sep-16 16:29N 37°17' E 011°22'1114.6
2017-Sep-16 15:43N 37°22' E 011°10'314.7
2017-Sep-16 15:30N 37°24' E 011°07'814.7
2017-Sep-16 14:56N 37°26' E 010°57'614.9
2017-Sep-16 14:30N 37°28' E 010°49'714.5
2017-Sep-16 13:59N 37°30' E 010°40'914.9
2017-Sep-16 13:25N 37°33' E 010°30'10014.4
2017-Sep-16 06:28N 37°38' E 008°23'713.9
2017-Sep-16 05:59N 37°38' E 008°15'  

Dump ship's entire track history